Terminal Aerodrome Forecast
Issued by NWS Twin Cities, MN

Home | Current Version | Previous Version | Graphics & Text | Print | Product List | Glossary On
Versions: 1 2 3 4 5 6 7 8 9 10 11 12 13 14 15 16
000
FTUS43 KMPX 162300
TAFEAU
TAF
KEAU 162332Z 1700/1724 07012KT P6SM -DZ OVC040
     FM170200 08010KT 4SM -RASN BR SCT015 OVC030
      TEMPO 1702/1705 1SM -SN BR OVC009
     FM170500 01007KT 3SM -SN BR OVC015
      TEMPO 1705/1708 1SM -SN BR OVC008
     FM171000 32008KT 5SM BR OVC012
     FM171400 32010KT P6SM OVC015
     FM171800 31009KT P6SM OVC025
     FM172100 31009KT P6SM OVC050=

USA.gov is the U.S. government's official web portal to all federal, state and local government web resources and services.